createdAt,value
2022-09-28T00:01:17.945Z,23.98
2022-09-28T00:03:46.906Z,21.15
2022-09-28T00:06:16.331Z,24.65
2022-09-28T00:08:43.331Z,20.88
2022-09-28T00:11:14.062Z,19.30
2022-09-28T00:13:43.190Z,17.55
2022-09-28T00:16:17.101Z,18.85
2022-09-28T00:18:45.904Z,17.02
2022-09-28T00:21:19.015Z,19.10
2022-09-28T00:24:04.898Z,17.08
2022-09-28T00:26:33.833Z,12.25
2022-09-28T00:29:02.595Z,12.82
2022-09-28T00:31:32.998Z,11.15
2022-09-28T00:34:01.622Z,11.15
2022-09-28T00:36:30.566Z,10.95
2022-09-28T00:38:58.484Z,9.15
2022-09-28T00:41:28.175Z,13.05
2022-09-28T00:44:26.736Z,11.50
2022-09-28T00:47:22.925Z,6.10
2022-09-28T00:50:12.314Z,7.07
2022-09-28T00:53:00.588Z,9.00
2022-09-28T00:55:36.821Z,5.32
2022-09-28T00:58:08.316Z,7.47
2022-09-28T01:00:35.599Z,5.65
2022-09-28T01:03:04.276Z,5.63
2022-09-28T01:05:31.128Z,4.63
2022-09-28T01:07:58.248Z,5.35
2022-09-28T01:10:25.630Z,7.28
2022-09-28T01:12:52.638Z,5.00
2022-09-28T01:15:22.178Z,6.75
2022-09-28T01:18:04.671Z,6.13
2022-09-28T01:20:43.730Z,9.65
2022-09-28T01:23:19.795Z,5.20
2022-09-28T01:25:55.690Z,12.13
2022-09-28T01:28:28.093Z,6.05
2022-09-28T01:31:09.507Z,8.45
2022-09-28T01:33:51.401Z,11.55
2022-09-28T01:36:44.159Z,6.32
2022-09-28T01:39:24.451Z,6.95
2022-09-28T01:41:54.100Z,6.55
2022-09-28T01:44:24.598Z,6.15
2022-09-28T01:46:53.724Z,5.80
2022-09-28T01:49:20.510Z,3.35
2022-09-28T01:52:23.594Z,3.83
2022-09-28T01:55:06.718Z,8.15
2022-09-28T01:57:44.954Z,5.10
2022-09-28T02:00:15.162Z,5.03
2022-09-28T02:02:49.951Z,4.00
2022-09-28T02:05:21.320Z,4.88
2022-09-28T02:08:03.643Z,3.75
2022-09-28T02:10:38.402Z,5.53
2022-09-28T02:13:12.143Z,5.80
2022-09-28T02:15:51.590Z,4.30
2022-09-28T02:18:18.665Z,5.32
2022-09-28T02:21:07.260Z,4.80
2022-09-28T02:23:37.708Z,4.10
2022-09-28T02:26:09.461Z,3.17
2022-09-28T02:28:36.467Z,7.20
2022-09-28T02:31:03.772Z,4.55
2022-09-28T02:33:39.126Z,6.53
2022-09-28T02:36:06.677Z,7.22
2022-09-28T02:38:33.766Z,7.20
2022-09-28T02:41:15.614Z,6.50
2022-09-28T02:43:45.420Z,8.35
2022-09-28T02:46:28.678Z,7.15
2022-09-28T02:49:22.290Z,7.97
2022-09-28T02:52:20.308Z,7.70
2022-09-28T02:54:59.210Z,8.10
2022-09-28T02:58:01.609Z,8.45
2022-09-28T03:00:31.370Z,6.22
2022-09-28T03:03:15.797Z,8.25
2022-09-28T03:06:14.684Z,7.82
2022-09-28T03:08:50.154Z,7.63
2022-09-28T03:11:34.192Z,6.32
2022-09-28T03:14:02.410Z,8.80
2022-09-28T03:16:32.263Z,8.10
2022-09-28T03:18:59.319Z,7.97
2022-09-28T03:21:26.282Z,9.30
2022-09-28T03:23:53.208Z,6.95
2022-09-28T03:26:20.203Z,8.40
2022-09-28T03:28:47.197Z,9.93
2022-09-28T03:31:14.244Z,11.25
2022-09-28T03:33:41.545Z,7.22
2022-09-28T03:36:09.888Z,9.00
2022-09-28T03:38:36.840Z,10.30
2022-09-28T03:41:03.951Z,11.32
2022-09-28T03:43:31.132Z,10.77
2022-09-28T03:46:00.495Z,11.25
2022-09-28T03:48:32.838Z,12.52
2022-09-28T03:51:03.171Z,10.95
2022-09-28T03:53:30.489Z,13.15
2022-09-28T03:56:03.753Z,10.50
2022-09-28T03:58:30.764Z,13.40
2022-09-28T04:01:03.334Z,13.98
2022-09-28T04:03:30.445Z,12.93
2022-09-28T04:05:57.724Z,22.10
2022-09-28T04:08:24.678Z,18.25
2022-09-28T04:10:51.840Z,15.65
2022-09-28T04:13:18.735Z,11.57
2022-09-28T04:15:53.526Z,15.35
2022-09-28T04:18:20.796Z,12.82
2022-09-28T04:20:48.511Z,16.58
2022-09-28T04:23:16.209Z,14.40
2022-09-28T04:25:47.492Z,17.48
2022-09-28T04:28:33.082Z,20.65
2022-09-28T04:31:00.008Z,16.75
2022-09-28T04:33:26.912Z,17.65
2022-09-28T04:35:54.304Z,23.33
2022-09-28T04:38:35.856Z,21.75
2022-09-28T04:41:08.239Z,21.88
2022-09-28T04:43:35.340Z,22.13
2022-09-28T04:46:03.868Z,26.92
2022-09-28T04:48:30.922Z,24.80
2022-09-28T04:51:00.242Z,20.13
2022-09-28T04:53:28.199Z,25.02
2022-09-28T04:56:15.917Z,22.63
2022-09-28T04:58:46.089Z,27.45
2022-09-28T05:01:18.572Z,30.10
2022-09-28T05:03:45.595Z,22.88
2022-09-28T05:06:16.222Z,51.22
2022-09-28T05:08:43.925Z,65.75
2022-09-28T05:11:12.617Z,35.83
2022-09-28T05:13:42.986Z,33.95
2022-09-28T05:16:10.699Z,52.50
2022-09-28T05:18:37.671Z,47.55
2022-09-28T05:21:09.341Z,37.45
2022-09-28T05:23:36.343Z,36.45
2022-09-28T05:26:03.454Z,41.45
2022-09-28T05:28:32.440Z,22.73
2022-09-28T05:31:00.936Z,25.48
2022-09-28T05:33:28.965Z,23.17
2022-09-28T05:36:00.800Z,27.92
2022-09-28T05:38:28.709Z,22.77
2022-09-28T05:40:56.242Z,21.30
2022-09-28T05:43:23.402Z,22.95
2022-09-28T05:45:55.084Z,34.20
2022-09-28T05:48:22.807Z,43.45
2022-09-28T05:50:53.200Z,31.33
2022-09-28T05:53:20.502Z,19.38
2022-09-28T05:55:47.777Z,22.13
2022-09-28T05:58:14.725Z,18.50
2022-09-28T06:00:41.987Z,20.48
2022-09-28T06:03:12.519Z,17.85
2022-09-28T06:05:40.441Z,17.92
2022-09-28T06:08:11.355Z,18.33
2022-09-28T06:13:06.829Z,22.40
2022-09-28T06:15:35.712Z,13.80
2022-09-28T06:18:08.242Z,15.80
2022-09-28T06:20:37.709Z,14.57
2022-09-28T06:23:05.057Z,18.90
2022-09-28T06:25:32.767Z,58.47
2022-09-28T06:28:04.443Z,50.40
2022-09-28T06:30:34.479Z,13.48
2022-09-28T06:33:02.654Z,17.60
2022-09-28T06:35:31.099Z,14.35
2022-09-28T06:38:01.538Z,11.57
2022-09-28T06:40:28.983Z,12.13
2022-09-28T06:43:10.691Z,12.45
2022-09-28T06:45:38.918Z,15.77
2022-09-28T06:48:06.727Z,9.45
2022-09-28T06:50:37.723Z,10.80
2022-09-28T06:53:07.148Z,12.20
2022-09-28T06:55:34.518Z,9.68
2022-09-28T06:58:05.180Z,10.48
2022-09-28T07:00:35.585Z,9.27
2022-09-28T07:03:04.359Z,12.07
2022-09-28T07:05:35.323Z,11.68
2022-09-28T07:08:02.863Z,13.80
2022-09-28T07:10:31.054Z,9.50
2022-09-28T07:13:02.918Z,10.63
2022-09-28T07:15:30.484Z,9.73
2022-09-28T07:18:03.550Z,12.35
2022-09-28T07:20:31.366Z,12.32
2022-09-28T07:23:13.207Z,10.25
2022-09-28T07:25:48.182Z,11.90
2022-09-28T07:28:15.833Z,11.88
2022-09-28T07:30:45.035Z,11.45
2022-09-28T07:33:14.807Z,12.65
2022-09-28T07:35:42.848Z,12.38
2022-09-28T07:38:10.888Z,10.90
2022-09-28T07:40:56.874Z,11.70
2022-09-28T07:43:24.029Z,13.82
2022-09-28T07:45:54.561Z,10.52
2022-09-28T07:48:22.672Z,10.27
2022-09-28T07:50:52.874Z,9.73
2022-09-28T07:53:21.160Z,12.85
2022-09-28T07:55:55.186Z,10.20
2022-09-28T07:58:22.911Z,10.88
2022-09-28T08:00:51.067Z,12.32
2022-09-28T08:03:19.853Z,10.95
2022-09-28T08:05:47.642Z,11.82
2022-09-28T08:08:15.663Z,13.18
2022-09-28T08:10:46.824Z,12.82
2022-09-28T08:13:15.475Z,13.68
2022-09-28T08:15:42.908Z,10.50
2022-09-28T08:18:10.802Z,12.15
2022-09-28T08:20:56.327Z,10.63
2022-09-28T08:23:23.956Z,9.45
2022-09-28T08:25:54.353Z,10.05
2022-09-28T08:28:22.999Z,9.95
2022-09-28T08:30:50.970Z,11.50
2022-09-28T08:33:21.520Z,10.18
2022-09-28T08:35:54.999Z,9.68
2022-09-28T08:38:21.998Z,8.15
2022-09-28T08:41:22.873Z,9.18
2022-09-28T08:44:12.487Z,10.07
2022-09-28T08:47:02.635Z,9.48
2022-09-28T08:49:37.239Z,9.93
2022-09-28T08:52:12.320Z,11.45
2022-09-28T08:54:56.636Z,11.65
2022-09-28T08:57:32.630Z,10.35
2022-09-28T09:00:02.287Z,9.25
2022-09-28T09:02:33.900Z,12.82
2022-09-28T09:05:05.440Z,10.27
2022-09-28T09:07:54.266Z,10.63
2022-09-28T09:10:48.655Z,10.02
2022-09-28T09:13:19.461Z,11.10
2022-09-28T09:18:45.057Z,9.75
2022-09-28T09:21:25.677Z,7.60
2022-09-28T09:23:57.743Z,7.90
2022-09-28T09:26:39.567Z,10.18
2022-09-28T09:29:40.612Z,8.18
2022-09-28T09:35:01.772Z,8.75
2022-09-28T09:38:08.179Z,7.20
2022-09-28T09:40:54.182Z,6.30
2022-09-28T09:43:59.219Z,6.10
2022-09-28T09:46:36.765Z,8.05
2022-09-28T09:49:20.870Z,9.20
2022-09-28T09:52:22.401Z,7.85
2022-09-28T09:55:19.661Z,6.13
2022-09-28T09:57:53.817Z,6.18
2022-09-28T10:00:20.820Z,4.22
2022-09-28T10:02:50.089Z,5.57
2022-09-28T10:05:28.008Z,6.05
2022-09-28T10:07:59.242Z,5.50
2022-09-28T10:10:39.328Z,4.75
2022-09-28T10:13:06.314Z,6.23
2022-09-28T10:15:35.787Z,5.20
2022-09-28T10:18:09.959Z,4.18
2022-09-28T10:20:43.250Z,3.80
2022-09-28T10:23:20.581Z,5.88
2022-09-28T10:25:50.534Z,5.78
2022-09-28T10:28:24.330Z,6.37
2022-09-28T10:30:51.453Z,4.63
2022-09-28T10:33:31.177Z,7.15
2022-09-28T10:36:02.688Z,7.47
2022-09-28T10:38:31.228Z,6.57
2022-09-28T10:41:17.519Z,5.00
2022-09-28T10:44:09.502Z,6.28
2022-09-28T10:46:39.061Z,5.18
2022-09-28T10:49:16.161Z,3.58
2022-09-28T10:51:49.980Z,5.03
2022-09-28T10:54:22.352Z,5.43
2022-09-28T10:56:50.732Z,4.80
2022-09-28T10:59:23.797Z,2.42
2022-09-28T11:01:56.454Z,3.38
2022-09-28T11:04:28.850Z,2.85
2022-09-28T11:09:49.262Z,3.83
2022-09-28T11:12:20.980Z,4.13
2022-09-28T11:14:53.017Z,2.83
2022-09-28T11:17:32.842Z,3.22
2022-09-28T11:20:27.758Z,4.63
2022-09-28T11:23:01.411Z,4.38
2022-09-28T11:25:29.890Z,3.58
2022-09-28T11:28:00.137Z,4.18
2022-09-28T11:30:34.037Z,3.67
2022-09-28T11:33:12.632Z,1.95
2022-09-28T11:36:11.089Z,3.45
2022-09-28T11:38:54.068Z,2.53
2022-09-28T11:41:48.962Z,5.18
2022-09-28T11:44:22.325Z,5.68
2022-09-28T11:47:13.860Z,3.85
2022-09-28T11:49:44.388Z,4.35
2022-09-28T11:52:19.668Z,3.78
2022-09-28T11:55:05.525Z,3.20
2022-09-28T11:57:38.932Z,4.55
2022-09-28T12:00:12.386Z,3.65
2022-09-28T12:02:50.026Z,9.75
2022-09-28T12:05:27.501Z,4.82
2022-09-28T12:07:59.395Z,4.72
2022-09-28T12:11:04.717Z,5.25
2022-09-28T12:13:54.489Z,2.05
2022-09-28T12:16:53.489Z,2.25
2022-09-28T12:19:40.185Z,4.47
2022-09-28T12:22:21.644Z,8.57
2022-09-28T12:24:52.983Z,10.02
2022-09-28T12:27:41.947Z,5.35
2022-09-28T12:30:17.270Z,3.08
2022-09-28T12:32:50.752Z,1.33
2022-09-28T12:35:32.773Z,1.50
2022-09-28T12:38:30.602Z,1.70
2022-09-28T12:41:06.885Z,1.70
2022-09-28T12:43:33.866Z,2.38
2022-09-28T12:46:12.680Z,2.85
2022-09-28T12:49:51.523Z,4.85
2022-09-28T12:51:57.959Z,4.13
2022-09-28T12:54:39.108Z,3.00
2022-09-28T12:57:34.082Z,3.65
2022-09-28T13:00:07.499Z,4.00
2022-09-28T13:02:52.935Z,3.05
2022-09-28T13:05:45.974Z,3.10
2022-09-28T13:08:23.952Z,2.60
2022-09-28T13:11:08.978Z,5.90
2022-09-28T13:13:54.631Z,7.47
2022-09-28T13:16:24.753Z,4.72
2022-09-28T13:18:58.591Z,4.18
2022-09-28T13:21:41.434Z,4.43
2022-09-28T13:24:31.499Z,3.78
2022-09-28T13:27:11.035Z,3.42
2022-09-28T13:32:30.247Z,1.92
2022-09-28T13:34:59.027Z,2.72
2022-09-28T13:37:26.555Z,2.53
2022-09-28T13:39:59.392Z,2.97
2022-09-28T13:42:42.284Z,1.75
2022-09-28T13:45:12.335Z,3.75
2022-09-28T13:47:52.022Z,3.60
2022-09-28T13:50:50.161Z,5.95
2022-09-28T13:53:33.460Z,4.35
2022-09-28T13:56:21.836Z,1.70
2022-09-28T13:58:54.309Z,4.50
2022-09-28T14:01:28.567Z,3.67
2022-09-28T14:04:14.532Z,3.60
2022-09-28T14:07:11.748Z,3.05
2022-09-28T14:10:16.307Z,4.93
2022-09-28T14:12:43.228Z,3.85
2022-09-28T14:15:28.917Z,2.53
2022-09-28T14:18:24.521Z,3.05
2022-09-28T14:21:03.085Z,2.00
2022-09-28T14:23:48.678Z,2.00
2022-09-28T14:26:44.700Z,3.55
2022-09-28T14:29:27.797Z,2.35
2022-09-28T14:32:10.047Z,2.95
2022-09-28T14:34:41.655Z,3.88
2022-09-28T14:37:41.000Z,2.88
2022-09-28T14:40:37.202Z,2.90
2022-09-28T14:43:25.096Z,3.55
2022-09-28T14:46:12.023Z,3.65
2022-09-28T14:48:50.744Z,3.88
2022-09-28T14:51:26.839Z,4.68
2022-09-28T14:53:55.800Z,3.97
2022-09-28T14:56:22.988Z,6.90
2022-09-28T14:58:58.632Z,5.05
2022-09-28T15:01:26.886Z,4.63
2022-09-28T15:03:56.864Z,5.45
2022-09-28T15:06:25.166Z,4.65
2022-09-28T15:08:52.123Z,4.50
2022-09-28T15:11:24.549Z,3.95
2022-09-28T15:14:05.033Z,4.38
2022-09-28T15:16:35.123Z,4.88
2022-09-28T15:19:25.300Z,5.13
2022-09-28T15:21:52.303Z,4.93
2022-09-28T15:24:34.068Z,5.88
2022-09-28T15:27:03.434Z,7.13
2022-09-28T15:29:33.710Z,5.60
2022-09-28T15:32:00.877Z,7.95
2022-09-28T15:34:48.434Z,9.13
2022-09-28T15:37:18.116Z,9.68
2022-09-28T15:39:48.529Z,11.85
2022-09-28T15:42:17.377Z,11.02
2022-09-28T15:45:01.671Z,11.65
2022-09-28T15:47:33.275Z,8.25
2022-09-28T15:50:04.849Z,5.93
2022-09-28T15:52:43.819Z,8.55
2022-09-28T15:55:32.223Z,6.25
2022-09-28T15:58:06.722Z,8.25
2022-09-28T16:00:34.219Z,6.93
2022-09-28T16:03:03.975Z,8.85
2022-09-28T16:05:43.247Z,8.68
2022-09-28T16:08:38.852Z,10.60
2022-09-28T16:11:18.021Z,8.65
2022-09-28T16:14:06.611Z,9.40
2022-09-28T16:16:42.176Z,8.07
2022-09-28T16:19:23.785Z,8.82
2022-09-28T16:21:56.135Z,10.73
2022-09-28T16:24:33.818Z,7.70
2022-09-28T16:27:22.504Z,6.75
2022-09-28T16:30:10.598Z,8.05
2022-09-28T16:32:48.382Z,7.22
2022-09-28T16:35:21.751Z,9.10
2022-09-28T16:37:56.924Z,9.30
2022-09-28T16:40:24.329Z,8.60
2022-09-28T16:42:54.440Z,9.77
2022-09-28T16:45:24.186Z,12.23
2022-09-28T16:47:53.205Z,10.90
2022-09-28T16:50:21.835Z,12.93
2022-09-28T16:53:18.693Z,12.27
2022-09-28T16:55:48.582Z,11.82
2022-09-28T16:58:15.653Z,11.13
2022-09-28T17:00:43.795Z,11.38
2022-09-28T17:03:21.229Z,12.43
2022-09-28T17:05:48.415Z,13.57
2022-09-28T17:08:17.734Z,11.98
2022-09-28T17:11:14.741Z,14.85
2022-09-28T17:13:44.079Z,12.77
2022-09-28T17:16:37.234Z,14.02
2022-09-28T17:19:22.254Z,15.02
2022-09-28T17:21:50.008Z,14.82
2022-09-28T17:24:18.214Z,17.35
2022-09-28T17:26:47.503Z,18.33
2022-09-28T17:29:15.683Z,17.10
2022-09-28T17:31:47.043Z,19.52
2022-09-28T17:34:16.657Z,24.42
2022-09-28T17:36:45.065Z,22.10
2022-09-28T17:39:17.819Z,25.90
2022-09-28T17:41:45.310Z,26.70
2022-09-28T17:44:16.589Z,20.90
2022-09-28T17:46:47.815Z,19.05
2022-09-28T17:49:15.504Z,18.35
2022-09-28T17:51:42.532Z,20.08
2022-09-28T17:54:09.682Z,16.23
2022-09-28T17:56:37.283Z,16.60
2022-09-28T17:59:06.928Z,15.35
2022-09-28T18:01:38.047Z,14.32
2022-09-28T18:04:07.004Z,17.30
2022-09-28T18:06:34.739Z,14.18
2022-09-28T18:09:05.447Z,14.25
2022-09-28T18:11:33.716Z,15.23
2022-09-28T18:14:00.989Z,15.45
2022-09-28T18:16:29.173Z,17.30
2022-09-28T18:18:56.232Z,22.10
2022-09-28T18:21:23.263Z,18.70
2022-09-28T18:23:50.194Z,14.75
2022-09-28T18:26:19.883Z,18.90
2022-09-28T18:28:47.345Z,18.27
2022-09-28T18:31:15.928Z,22.35
2022-09-28T18:33:43.576Z,18.30
2022-09-28T18:36:10.514Z,21.10
2022-09-28T18:38:38.205Z,32.55
2022-09-28T18:41:10.513Z,38.45
2022-09-28T18:43:37.827Z,38.17
2022-09-28T18:46:09.648Z,41.50
2022-09-28T18:48:37.609Z,40.95
2022-09-28T18:51:09.563Z,41.92
2022-09-28T18:53:37.227Z,28.25
2022-09-28T18:56:12.260Z,41.03
2022-09-28T18:58:40.890Z,42.20
2022-09-28T19:01:29.560Z,40.22
2022-09-28T19:04:02.163Z,41.17
2022-09-28T19:06:30.078Z,58.30
2022-09-28T19:08:57.866Z,42.85
2022-09-28T19:11:25.795Z,43.85
2022-09-28T19:13:54.156Z,42.97
2022-09-28T19:16:27.199Z,44.20
2022-09-28T19:18:55.701Z,48.67
2022-09-28T19:21:22.761Z,46.50
2022-09-28T19:23:51.191Z,34.88
2022-09-28T19:26:21.148Z,35.55
2022-09-28T19:28:48.520Z,34.97
2022-09-28T19:31:15.885Z,32.25
2022-09-28T19:33:45.245Z,23.70
2022-09-28T19:36:14.782Z,20.20
2022-09-28T19:38:41.877Z,21.15
2022-09-28T19:41:14.032Z,24.38
2022-09-28T19:43:44.002Z,17.13
2022-09-28T19:46:12.907Z,29.03
2022-09-28T19:48:42.627Z,31.25
2022-09-28T19:51:09.490Z,24.60
2022-09-28T19:53:36.969Z,28.60
2022-09-28T19:56:08.166Z,29.00
2022-09-28T19:58:36.927Z,25.27
2022-09-28T20:01:07.516Z,34.75
2022-09-28T20:03:35.343Z,24.35
2022-09-28T20:06:02.982Z,23.73
2022-09-28T20:08:33.227Z,26.48
2022-09-28T20:11:00.947Z,26.13
2022-09-28T20:13:33.414Z,29.70
2022-09-28T20:16:12.605Z,21.95
2022-09-28T20:18:43.905Z,22.15
2022-09-28T20:21:17.109Z,34.72
2022-09-28T20:23:45.583Z,27.35
2022-09-28T20:26:13.806Z,29.25
2022-09-28T20:28:41.256Z,28.48
2022-09-28T20:31:12.274Z,29.20
2022-09-28T20:33:39.546Z,29.33
2022-09-28T20:36:08.579Z,25.58
2022-09-28T20:38:37.478Z,27.52
2022-09-28T20:41:04.617Z,30.67
2022-09-28T20:43:31.805Z,20.50
2022-09-28T20:45:59.227Z,26.92
2022-09-28T20:48:27.094Z,26.13
2022-09-28T20:51:10.627Z,29.05
2022-09-28T20:53:39.215Z,27.40
2022-09-28T20:56:13.100Z,26.40
2022-09-28T20:58:41.076Z,28.15
2022-09-28T21:01:17.660Z,25.33
2022-09-28T21:03:49.443Z,24.85
2022-09-28T21:06:22.187Z,26.15
2022-09-28T21:08:49.971Z,35.75
2022-09-28T21:11:19.065Z,39.42
2022-09-28T21:13:46.853Z,34.10
2022-09-28T21:16:15.754Z,33.40
2022-09-28T21:18:42.962Z,31.02
2022-09-28T21:21:13.474Z,39.25
2022-09-28T21:23:40.909Z,37.20
2022-09-28T21:26:19.282Z,39.92
2022-09-28T21:28:46.897Z,34.72
2022-09-28T21:31:14.868Z,45.05
2022-09-28T21:33:41.795Z,54.55
2022-09-28T21:36:09.274Z,73.50
2022-09-28T21:38:36.233Z,63.10
2022-09-28T21:41:03.421Z,81.85
2022-09-28T21:43:31.937Z,72.25
2022-09-28T21:45:59.204Z,99.75
2022-09-28T21:48:27.885Z,68.63
2022-09-28T21:51:07.221Z,87.03
2022-09-28T21:53:36.532Z,109.43
2022-09-28T21:56:06.169Z,114.18
2022-09-28T21:58:34.910Z,118.38
2022-09-28T22:01:17.017Z,200.00
2022-09-28T22:03:45.467Z,93.82
2022-09-28T22:06:12.816Z,88.57
2022-09-28T22:08:40.290Z,58.47
2022-09-28T22:11:10.249Z,45.92
2022-09-28T22:13:44.864Z,42.83
2022-09-28T22:16:13.121Z,55.58
2022-09-28T22:18:40.565Z,37.33
2022-09-28T22:21:15.926Z,36.00
2022-09-28T22:23:42.999Z,34.22
2022-09-28T22:26:14.930Z,29.48
2022-09-28T22:28:52.811Z,22.67
2022-09-28T22:31:22.472Z,34.55
2022-09-28T22:33:50.102Z,30.77
2022-09-28T22:36:17.298Z,31.25
2022-09-28T22:38:45.329Z,23.00
2022-09-28T22:41:12.892Z,20.50
2022-09-28T22:43:39.851Z,18.85
2022-09-28T22:46:12.104Z,22.80
2022-09-28T22:48:39.736Z,30.00
2022-09-28T22:51:07.421Z,26.83
2022-09-28T22:53:35.937Z,30.15
2022-09-28T22:56:05.883Z,45.58
2022-09-28T22:58:33.859Z,24.70
2022-09-28T23:01:15.766Z,55.22
2022-09-28T23:03:43.053Z,45.38
2022-09-28T23:06:11.222Z,79.50
2022-09-28T23:08:38.546Z,42.47
2022-09-28T23:11:06.375Z,25.08
2022-09-28T23:13:38.641Z,46.95
2022-09-28T23:16:07.795Z,33.42
2022-09-28T23:18:36.711Z,39.15
2022-09-28T23:21:06.248Z,44.05
2022-09-28T23:23:33.871Z,28.75
2022-09-28T23:26:17.521Z,30.40
2022-09-28T23:28:45.476Z,26.48
2022-09-28T23:31:17.795Z,29.23
2022-09-28T23:33:45.301Z,30.27
2022-09-28T23:36:12.686Z,29.42
2022-09-28T23:38:39.834Z,31.10
2022-09-28T23:41:07.077Z,26.90
2022-09-28T23:43:34.938Z,18.42
2022-09-28T23:46:02.333Z,27.05
2022-09-28T23:48:29.594Z,25.80
2022-09-28T23:50:56.782Z,24.98
2022-09-28T23:53:23.819Z,19.42
2022-09-28T23:55:50.819Z,19.90
2022-09-28T23:58:17.807Z,23.45
